Wahiawa, Hawaii
Current Conditions -  °F | °C
As of 9:58 AM on Thursday 27 Nov 2014 (Local Time) from PHHI Reporting Station
Scattered Clouds Scattered Clouds  
Wind Chill: 73°   Ceiling: Unl
Heat Index: 73°   Visibility: 10mi
Dew Point: 58°   Wind: 13mph
Humidity: 59%   Direction: 50°NE
Pressure: 30.1"   Gusts: NA
Location:  21.5°N, 158.02°W
Report Text: PHHI 271958Z AUTO 05011KT 10SM SCT036 23/14 A3010 RMK AO2 SLP185 T02280144 $
Loading
Personal Weather Stations






























Interactive Weather Map New forecast layout! Learn more

10-Day Weather Forecast

Advertisements
Track Severe Weather on mobile